createdAt,value
2019-03-21T00:00:51.853Z,11.30
2019-03-21T00:03:20.740Z,11.30
2019-03-21T00:05:46.819Z,11.20
2019-03-21T00:08:12.858Z,11.20
2019-03-21T00:10:40.866Z,11.20
2019-03-21T00:13:06.996Z,11.20
2019-03-21T00:15:43.835Z,11.20
2019-03-21T00:18:22.202Z,11.10
2019-03-21T00:20:48.279Z,11.00
2019-03-21T00:23:17.509Z,10.90
2019-03-21T00:25:43.613Z,10.70
2019-03-21T00:28:12.537Z,10.60
2019-03-21T00:30:41.570Z,10.50
2019-03-21T00:33:07.609Z,10.40
2019-03-21T00:35:33.660Z,10.40
2019-03-21T00:37:59.714Z,10.30
2019-03-21T00:40:33.407Z,10.30
2019-03-21T00:43:03.758Z,10.20
2019-03-21T00:45:30.715Z,10.10
2019-03-21T00:47:57.152Z,10.10
2019-03-21T00:50:27.419Z,10.00
2019-03-21T00:52:59.693Z,10.00
2019-03-21T00:55:27.682Z,9.90
2019-03-21T00:57:53.770Z,9.90
2019-03-21T01:00:21.625Z,9.90
2019-03-21T01:02:47.712Z,9.80
2019-03-21T01:05:13.750Z,9.80
2019-03-21T01:07:39.849Z,9.70
2019-03-21T01:10:07.866Z,9.60
2019-03-21T01:12:33.929Z,9.50
2019-03-21T01:15:04.371Z,9.50
2019-03-21T01:17:30.448Z,9.40
2019-03-21T01:19:59.479Z,9.40
2019-03-21T01:22:25.541Z,9.30
2019-03-21T01:24:51.583Z,9.30
2019-03-21T01:27:17.651Z,9.20
2019-03-21T01:29:43.781Z,9.20
2019-03-21T01:32:09.842Z,9.10
2019-03-21T01:34:35.941Z,9.10
2019-03-21T01:37:04.631Z,9.10
2019-03-21T01:39:33.317Z,9.00
2019-03-21T01:41:59.374Z,9.00
2019-03-21T01:44:40.582Z,9.00
2019-03-21T01:46:59.660Z,9.00
2019-03-21T01:49:25.707Z,8.90
2019-03-21T01:52:07.124Z,8.90
2019-03-21T01:54:33.179Z,8.90
2019-03-21T01:57:02.491Z,8.90
2019-03-21T01:59:28.536Z,8.90
2019-03-21T02:01:54.618Z,8.80
2019-03-21T02:04:20.656Z,8.80
2019-03-21T02:06:46.747Z,8.80
2019-03-21T02:09:12.826Z,8.70
2019-03-21T02:11:39.030Z,8.70
2019-03-21T02:14:05.205Z,8.70
2019-03-21T02:16:31.440Z,8.80
2019-03-21T02:18:57.535Z,8.80
2019-03-21T02:21:23.643Z,8.80
2019-03-21T02:23:52.851Z,8.70
2019-03-21T02:26:21.594Z,8.70
2019-03-21T02:28:47.679Z,8.60
2019-03-21T02:31:26.028Z,8.60
2019-03-21T02:33:52.113Z,8.60
2019-03-21T02:36:27.468Z,8.60
2019-03-21T02:38:56.262Z,8.60
2019-03-21T02:41:25.388Z,8.60
2019-03-21T02:43:50.301Z,8.50
2019-03-21T02:46:19.043Z,8.50
2019-03-21T02:48:45.212Z,8.50
2019-03-21T02:51:11.316Z,8.40
2019-03-21T02:53:37.463Z,8.40
2019-03-21T02:56:14.312Z,8.40
2019-03-21T02:58:40.440Z,8.40
2019-03-21T03:01:06.500Z,8.30
2019-03-21T03:03:35.331Z,8.30
2019-03-21T03:06:01.402Z,8.30
2019-03-21T03:08:27.503Z,8.30
2019-03-21T03:10:54.573Z,8.20
2019-03-21T03:13:23.424Z,8.20
2019-03-21T03:15:49.680Z,8.20
2019-03-21T03:18:19.730Z,8.20
2019-03-21T03:20:48.600Z,8.10
2019-03-21T03:23:14.672Z,8.10
2019-03-21T03:25:40.862Z,8.10
2019-03-21T03:28:14.351Z,8.00
2019-03-21T03:30:47.523Z,8.00
2019-03-21T03:33:13.666Z,8.00
2019-03-21T03:35:39.732Z,7.90
2019-03-21T03:38:05.786Z,7.90
2019-03-21T03:40:39.348Z,7.90
2019-03-21T03:43:06.638Z,7.90
2019-03-21T03:45:37.991Z,7.80
2019-03-21T03:48:01.812Z,7.80
2019-03-21T03:50:37.094Z,7.80
2019-03-21T03:53:03.325Z,7.80
2019-03-21T03:55:47.725Z,7.70
2019-03-21T03:58:15.219Z,7.80
2019-03-21T04:00:44.009Z,7.80
2019-03-21T04:03:12.923Z,7.80
2019-03-21T04:05:42.044Z,7.90
2019-03-21T04:08:08.279Z,7.90
2019-03-21T04:10:42.484Z,7.90
2019-03-21T04:13:08.566Z,8.00
2019-03-21T04:15:34.616Z,8.00
2019-03-21T04:18:00.825Z,8.10
2019-03-21T04:20:31.723Z,8.20
2019-03-21T04:22:58.191Z,8.20
2019-03-21T04:25:26.151Z,8.30
2019-03-21T04:27:52.231Z,8.30
2019-03-21T04:30:18.323Z,8.30
2019-03-21T04:32:44.387Z,8.40
2019-03-21T04:35:13.204Z,8.40
2019-03-21T04:37:39.778Z,8.50
2019-03-21T04:40:09.914Z,8.50
2019-03-21T04:42:35.964Z,8.60
2019-03-21T04:45:03.644Z,8.60
2019-03-21T04:47:29.790Z,8.60
2019-03-21T04:49:55.845Z,8.70
2019-03-21T04:52:21.934Z,8.70
2019-03-21T04:54:48.018Z,8.70
2019-03-21T04:57:14.085Z,8.80
2019-03-21T04:59:43.185Z,8.90
2019-03-21T05:02:09.250Z,8.90
2019-03-21T05:04:50.571Z,8.90
2019-03-21T05:07:16.629Z,8.90
2019-03-21T05:09:42.698Z,8.90
2019-03-21T05:12:11.455Z,8.90
2019-03-21T05:14:55.811Z,8.90
2019-03-21T05:17:21.946Z,9.00
2019-03-21T05:19:54.294Z,9.00
2019-03-21T05:22:20.610Z,9.00
2019-03-21T05:24:46.699Z,9.10
2019-03-21T05:27:12.770Z,9.10
2019-03-21T05:29:38.873Z,9.10
2019-03-21T05:32:04.907Z,9.10
2019-03-21T05:34:30.979Z,9.10
2019-03-21T05:37:06.368Z,9.10
2019-03-21T05:39:32.435Z,9.10
2019-03-21T05:42:11.210Z,9.20
2019-03-21T05:44:40.465Z,9.20
2019-03-21T05:47:06.536Z,9.20
2019-03-21T05:49:35.542Z,9.20
2019-03-21T05:52:01.867Z,9.30
2019-03-21T05:54:30.857Z,9.30
2019-03-21T05:56:59.616Z,9.30
2019-03-21T05:59:25.700Z,9.30
2019-03-21T06:01:51.826Z,9.30
2019-03-21T06:04:20.548Z,9.40
2019-03-21T06:06:51.312Z,9.40
2019-03-21T06:09:20.635Z,9.40
2019-03-21T06:11:48.618Z,9.50
2019-03-21T06:14:17.477Z,9.50
2019-03-21T06:16:46.166Z,9.50
2019-03-21T06:19:26.325Z,9.50
2019-03-21T06:21:54.418Z,9.50
2019-03-21T06:24:28.790Z,9.50
2019-03-21T06:26:56.733Z,9.50
2019-03-21T06:29:22.804Z,9.50
2019-03-21T06:32:04.175Z,9.50
2019-03-21T06:34:30.277Z,9.60
2019-03-21T06:37:14.580Z,9.60
2019-03-21T06:39:40.664Z,9.60
2019-03-21T06:42:06.712Z,9.60
2019-03-21T06:44:48.028Z,9.70
2019-03-21T06:47:14.067Z,9.70
2019-03-21T06:49:46.631Z,9.80
2019-03-21T06:52:25.044Z,9.80
2019-03-21T06:54:51.105Z,9.80
2019-03-21T06:57:35.506Z,9.80
2019-03-21T07:00:02.658Z,9.90
2019-03-21T07:02:31.464Z,9.90
2019-03-21T07:05:16.055Z,9.90
2019-03-21T07:07:44.834Z,10.00
2019-03-21T07:10:23.050Z,10.00
2019-03-21T07:12:49.094Z,10.00
2019-03-21T07:15:15.310Z,10.10
2019-03-21T07:17:44.019Z,10.10
2019-03-21T07:20:11.105Z,10.20
2019-03-21T07:22:38.522Z,10.20
2019-03-21T07:25:23.519Z,10.30
2019-03-21T07:28:07.744Z,10.40
2019-03-21T07:30:36.581Z,10.40
2019-03-21T07:33:03.051Z,10.50
2019-03-21T07:35:29.189Z,10.60
2019-03-21T07:37:55.295Z,10.60
2019-03-21T07:40:21.400Z,10.70
2019-03-21T07:42:47.482Z,10.80
2019-03-21T07:45:17.442Z,10.80
2019-03-21T07:47:43.681Z,10.90
2019-03-21T07:50:13.128Z,10.90
2019-03-21T07:52:57.538Z,10.90
2019-03-21T07:55:23.726Z,11.00
2019-03-21T07:57:59.576Z,11.10
2019-03-21T08:00:25.782Z,11.20
2019-03-21T08:02:51.826Z,11.20
2019-03-21T08:05:40.153Z,11.30
2019-03-21T08:08:01.508Z,11.40
2019-03-21T08:10:27.773Z,11.50
2019-03-21T08:12:59.715Z,11.60
2019-03-21T08:15:28.456Z,11.70
2019-03-21T08:17:57.231Z,11.80
2019-03-21T08:20:25.962Z,11.90
2019-03-21T08:22:54.783Z,11.90
2019-03-21T08:25:39.461Z,12.00
2019-03-21T08:28:23.673Z,12.10
2019-03-21T08:31:03.912Z,12.10
2019-03-21T08:33:32.630Z,12.10
2019-03-21T08:35:58.687Z,12.10
2019-03-21T08:38:24.795Z,12.10
2019-03-21T08:40:53.536Z,12.00
2019-03-21T08:43:25.343Z,12.10
2019-03-21T08:45:51.501Z,12.10
2019-03-21T08:48:17.709Z,12.10
2019-03-21T08:50:43.772Z,12.20
2019-03-21T08:53:12.529Z,12.20
2019-03-21T08:55:38.709Z,12.30
2019-03-21T08:58:04.791Z,12.30
2019-03-21T09:00:34.463Z,12.30
2019-03-21T09:02:59.006Z,12.30
2019-03-21T09:05:25.402Z,12.40
2019-03-21T09:07:54.234Z,12.50
2019-03-21T09:10:35.574Z,12.60
2019-03-21T09:13:01.637Z,12.80
2019-03-21T09:15:46.265Z,12.90
2019-03-21T09:18:15.081Z,12.90
2019-03-21T09:20:41.279Z,13.00
2019-03-21T09:23:22.719Z,13.10
2019-03-21T09:26:07.700Z,13.20
2019-03-21T09:28:33.749Z,13.30
2019-03-21T09:30:59.781Z,13.30
2019-03-21T09:33:25.837Z,13.40
2019-03-21T09:35:58.024Z,13.50
2019-03-21T09:38:24.081Z,13.70
2019-03-21T09:40:50.181Z,13.80
2019-03-21T09:43:18.933Z,13.90
2019-03-21T09:46:03.607Z,14.00
2019-03-21T09:48:32.314Z,14.00
2019-03-21T09:51:01.235Z,14.00
2019-03-21T09:53:27.388Z,14.10
2019-03-21T09:55:53.952Z,14.30
2019-03-21T09:58:20.018Z,14.60
2019-03-21T10:00:46.096Z,14.90
2019-03-21T10:03:15.001Z,14.80
2019-03-21T10:05:41.143Z,14.60
2019-03-21T10:08:07.310Z,14.60
2019-03-21T10:10:45.668Z,14.80
2019-03-21T10:13:14.286Z,15.40
2019-03-21T10:15:40.447Z,16.50
2019-03-21T10:18:15.552Z,17.90
2019-03-21T10:20:41.629Z,19.30
2019-03-21T10:23:19.988Z,19.90
2019-03-21T10:25:46.037Z,20.50
2019-03-21T10:28:27.558Z,21.30
2019-03-21T10:30:57.303Z,21.20
2019-03-21T10:33:29.795Z,20.60
2019-03-21T10:35:56.046Z,19.80
2019-03-21T10:38:40.192Z,18.70
2019-03-21T10:41:06.300Z,17.70
2019-03-21T10:43:32.493Z,17.20
2019-03-21T10:45:58.688Z,16.70
2019-03-21T10:48:24.787Z,16.20
2019-03-21T10:50:50.902Z,15.80
2019-03-21T10:53:17.239Z,15.40
2019-03-21T10:55:43.318Z,15.20
2019-03-21T10:58:27.520Z,15.10
2019-03-21T11:00:56.303Z,15.00
2019-03-21T11:03:22.388Z,15.00
2019-03-21T11:05:48.524Z,14.80
2019-03-21T11:08:14.740Z,14.80
2019-03-21T11:10:40.865Z,14.70
2019-03-21T11:13:07.047Z,14.70
2019-03-21T11:15:33.113Z,14.70
2019-03-21T11:17:59.187Z,14.70
2019-03-21T11:20:35.286Z,14.60
2019-03-21T11:23:13.588Z,14.50
2019-03-21T11:25:57.897Z,14.40
2019-03-21T11:28:24.306Z,14.40
2019-03-21T11:30:50.562Z,14.40
2019-03-21T11:33:16.699Z,14.40
2019-03-21T11:35:42.835Z,14.30
2019-03-21T11:38:09.028Z,14.30
2019-03-21T11:40:35.198Z,14.30
2019-03-21T11:43:02.294Z,14.30
2019-03-21T11:45:28.483Z,14.40
2019-03-21T11:47:54.788Z,14.50
2019-03-21T11:50:30.207Z,14.50
2019-03-21T11:52:56.458Z,14.50
2019-03-21T11:55:22.588Z,14.50
2019-03-21T11:57:48.689Z,14.50
2019-03-21T12:00:20.526Z,14.50
2019-03-21T12:02:49.391Z,14.60
2019-03-21T12:05:15.835Z,14.50
2019-03-21T12:07:44.572Z,14.60
2019-03-21T12:10:11.111Z,14.60
2019-03-21T12:12:39.845Z,14.70
2019-03-21T12:15:24.586Z,14.80
2019-03-21T12:17:53.376Z,15.00
2019-03-21T12:20:27.614Z,15.10
2019-03-21T12:22:56.800Z,15.20
2019-03-21T12:25:22.932Z,15.20
2019-03-21T12:27:49.096Z,15.20
2019-03-21T12:30:29.041Z,15.20
2019-03-21T12:32:55.162Z,15.30
2019-03-21T12:35:21.232Z,15.30
2019-03-21T12:37:53.506Z,15.20
2019-03-21T12:40:19.672Z,15.20
2019-03-21T12:42:45.919Z,15.40
2019-03-21T12:45:11.972Z,15.50
2019-03-21T12:47:56.863Z,15.60
2019-03-21T12:50:22.967Z,15.80
2019-03-21T12:52:58.279Z,16.10
2019-03-21T12:55:24.493Z,16.50
2019-03-21T12:57:50.654Z,16.80
2019-03-21T13:00:34.096Z,17.00
2019-03-21T13:03:00.166Z,17.10
2019-03-21T13:05:27.457Z,17.10
2019-03-21T13:07:56.358Z,17.20
2019-03-21T13:10:22.470Z,17.40
2019-03-21T13:12:48.605Z,17.50
2019-03-21T13:15:17.373Z,17.40
2019-03-21T13:18:02.601Z,17.10
2019-03-21T13:20:28.682Z,16.90
2019-03-21T13:23:10.094Z,17.00
2019-03-21T13:25:36.225Z,17.30
2019-03-21T13:28:04.946Z,17.90
2019-03-21T13:30:34.659Z,18.70
2019-03-21T13:33:00.889Z,19.80
2019-03-21T13:35:32.512Z,20.90
2019-03-21T13:37:57.808Z,21.50
2019-03-21T13:40:23.985Z,21.20
2019-03-21T13:42:50.170Z,20.60
2019-03-21T13:45:16.267Z,20.90
2019-03-21T13:47:42.584Z,21.30
2019-03-21T13:50:08.960Z,21.90
2019-03-21T13:53:04.309Z,22.20
2019-03-21T13:55:24.647Z,22.20
2019-03-21T13:58:08.950Z,21.50
2019-03-21T14:00:35.010Z,21.20
2019-03-21T14:03:25.175Z,21.50
2019-03-21T14:05:47.508Z,21.60
2019-03-21T14:08:31.804Z,21.40
2019-03-21T14:10:58.111Z,21.20
2019-03-21T14:13:24.208Z,21.30
2019-03-21T14:15:50.384Z,21.50
2019-03-21T14:18:16.461Z,21.30
2019-03-21T14:20:42.511Z,21.30
2019-03-21T14:23:16.864Z,21.10
2019-03-21T14:25:39.042Z,20.50
2019-03-21T14:28:05.100Z,19.90
2019-03-21T14:30:33.925Z,19.40
2019-03-21T14:33:02.713Z,19.60
2019-03-21T14:35:31.365Z,20.00
2019-03-21T14:38:00.189Z,20.20
2019-03-21T14:40:26.353Z,20.20
2019-03-21T14:42:52.407Z,20.60
2019-03-21T14:45:21.462Z,21.00
2019-03-21T14:48:06.180Z,20.80
2019-03-21T14:50:34.879Z,20.30
2019-03-21T14:53:28.448Z,20.10
2019-03-21T14:55:47.880Z,20.30
2019-03-21T14:58:16.622Z,20.60
2019-03-21T15:00:42.731Z,20.80
2019-03-21T15:03:08.805Z,20.90
2019-03-21T15:05:34.854Z,21.00
2019-03-21T15:08:19.493Z,21.10
2019-03-21T15:10:48.298Z,21.10
2019-03-21T15:13:16.947Z,21.20
2019-03-21T15:15:45.754Z,21.10
2019-03-21T15:18:14.432Z,21.00
2019-03-21T15:20:43.098Z,20.80
2019-03-21T15:23:11.801Z,20.40
2019-03-21T15:25:40.583Z,20.00
2019-03-21T15:28:06.851Z,19.80
2019-03-21T15:30:35.608Z,19.60
2019-03-21T15:33:04.343Z,19.40
2019-03-21T15:35:33.353Z,19.10
2019-03-21T15:38:06.783Z,18.90
2019-03-21T15:40:51.573Z,18.70
2019-03-21T15:43:33.034Z,18.40
2019-03-21T15:45:59.094Z,18.20
2019-03-21T15:48:37.377Z,18.00
2019-03-21T15:51:04.890Z,17.80
2019-03-21T15:53:31.319Z,17.80
2019-03-21T15:56:03.513Z,17.70
2019-03-21T15:58:29.770Z,17.60
2019-03-21T16:01:07.924Z,17.60
2019-03-21T16:03:52.292Z,17.60
2019-03-21T16:06:21.024Z,17.50
2019-03-21T16:08:47.097Z,17.40
2019-03-21T16:11:13.229Z,17.20
2019-03-21T16:13:39.296Z,17.20
2019-03-21T16:16:05.429Z,17.10
2019-03-21T16:18:31.579Z,17.10
2019-03-21T16:20:57.727Z,17.00
2019-03-21T16:23:42.008Z,17.00
2019-03-21T16:26:08.079Z,17.00
2019-03-21T16:28:37.307Z,16.90
2019-03-21T16:31:03.488Z,16.80
2019-03-21T16:33:32.685Z,16.70
2019-03-21T16:35:59.023Z,16.60
2019-03-21T16:38:25.252Z,16.60
2019-03-21T16:40:51.466Z,16.50
2019-03-21T16:43:17.611Z,16.40
2019-03-21T16:45:43.721Z,16.30
2019-03-21T16:48:09.865Z,16.20
2019-03-21T16:50:35.925Z,16.20
2019-03-21T16:53:08.228Z,16.10
2019-03-21T16:55:34.298Z,16.00
2019-03-21T16:58:03.545Z,15.90
2019-03-21T17:00:29.655Z,15.90
2019-03-21T17:03:01.899Z,15.80
2019-03-21T17:05:27.952Z,15.70
2019-03-21T17:08:12.574Z,15.70
2019-03-21T17:10:41.527Z,15.60
2019-03-21T17:13:10.824Z,15.50
2019-03-21T17:15:37.117Z,15.40
2019-03-21T17:18:03.417Z,15.20
2019-03-21T17:20:35.414Z,15.20
2019-03-21T17:23:01.566Z,15.10
2019-03-21T17:25:27.634Z,15.00
2019-03-21T17:27:54.924Z,14.90
2019-03-21T17:30:21.260Z,14.90
2019-03-21T17:32:47.394Z,14.90
2019-03-21T17:35:31.690Z,14.80
2019-03-21T17:37:57.818Z,14.80
2019-03-21T17:40:30.085Z,14.70
2019-03-21T17:42:56.130Z,14.60
2019-03-21T17:45:25.417Z,14.60
2019-03-21T17:47:51.527Z,14.50
2019-03-21T17:50:23.724Z,14.40
2019-03-21T17:52:49.776Z,14.30
2019-03-21T17:55:15.855Z,14.20
2019-03-21T17:57:56.991Z,14.10
2019-03-21T18:00:32.757Z,14.00
2019-03-21T18:02:58.860Z,13.90
2019-03-21T18:05:40.210Z,13.80
2019-03-21T18:08:08.948Z,13.60
2019-03-21T18:10:37.647Z,13.60
2019-03-21T18:13:06.371Z,13.50
2019-03-21T18:15:35.118Z,13.40
2019-03-21T18:18:19.713Z,13.40
2019-03-21T18:20:48.488Z,13.30
2019-03-21T18:23:32.612Z,13.30
2019-03-21T18:25:58.664Z,13.20
2019-03-21T18:28:27.733Z,13.10
2019-03-21T18:31:12.315Z,13.10
2019-03-21T18:33:56.993Z,13.00
2019-03-21T18:36:25.728Z,12.90
2019-03-21T18:39:10.302Z,12.80
2019-03-21T18:41:55.117Z,12.70
2019-03-21T18:44:21.257Z,12.70
2019-03-21T18:46:47.336Z,12.60
2019-03-21T18:49:31.935Z,12.60
2019-03-21T18:52:00.760Z,12.60
2019-03-21T18:54:45.393Z,12.50
2019-03-21T18:57:14.247Z,12.40
2019-03-21T18:59:40.423Z,12.40
2019-03-21T19:02:06.575Z,12.30
2019-03-21T19:04:51.103Z,12.20
2019-03-21T19:07:19.840Z,12.20
2019-03-21T19:10:05.283Z,12.20
2019-03-21T19:12:33.961Z,12.20
2019-03-21T19:15:04.512Z,12.10
2019-03-21T19:17:36.821Z,12.10
2019-03-21T19:20:04.185Z,12.00
2019-03-21T19:22:30.270Z,12.00
2019-03-21T19:25:19.053Z,12.00
2019-03-21T19:27:43.852Z,12.00
2019-03-21T19:30:14.452Z,12.00
2019-03-21T19:32:40.526Z,12.00
2019-03-21T19:35:09.593Z,12.00
2019-03-21T19:37:35.803Z,12.00
2019-03-21T19:40:05.703Z,11.90
2019-03-21T19:42:38.248Z,11.90
2019-03-21T19:45:15.088Z,11.90
2019-03-21T19:47:59.511Z,11.90
2019-03-21T19:50:28.280Z,11.90
2019-03-21T19:52:57.087Z,11.90
2019-03-21T19:55:41.760Z,11.90
2019-03-21T19:58:10.566Z,11.90
2019-03-21T20:00:54.697Z,11.90
2019-03-21T20:03:20.851Z,12.00
2019-03-21T20:05:46.934Z,11.90
2019-03-21T20:08:13.078Z,12.00
2019-03-21T20:10:45.557Z,12.00
2019-03-21T20:13:14.650Z,12.00
2019-03-21T20:15:40.716Z,12.00
2019-03-21T20:18:06.790Z,12.00
2019-03-21T20:20:35.585Z,12.00
2019-03-21T20:23:04.368Z,12.00
2019-03-21T20:25:43.400Z,12.00
2019-03-21T20:28:09.735Z,11.90
2019-03-21T20:30:48.110Z,12.00
2019-03-21T20:33:26.637Z,11.90
2019-03-21T20:35:52.749Z,11.90
2019-03-21T20:38:37.333Z,11.90
2019-03-21T20:41:03.433Z,11.90
2019-03-21T20:43:29.616Z,11.90
2019-03-21T20:45:58.385Z,11.90
2019-03-21T20:48:27.084Z,11.90
2019-03-21T20:50:53.139Z,11.90
2019-03-21T20:53:25.351Z,11.90
2019-03-21T20:56:09.566Z,11.80
2019-03-21T20:58:35.639Z,11.80
2019-03-21T21:01:16.921Z,11.80
2019-03-21T21:03:58.063Z,11.80
2019-03-21T21:06:42.305Z,11.80
2019-03-21T21:09:11.009Z,11.80
2019-03-21T21:11:37.082Z,11.80
2019-03-21T21:14:03.241Z,11.80
2019-03-21T21:16:30.455Z,11.80
2019-03-21T21:18:56.653Z,11.80
2019-03-21T21:21:22.698Z,11.80
2019-03-21T21:23:54.937Z,11.80
2019-03-21T21:26:21.040Z,11.80
2019-03-21T21:28:47.115Z,11.80
2019-03-21T21:31:13.305Z,11.80
2019-03-21T21:33:51.531Z,11.80
2019-03-21T21:36:21.798Z,11.80
2019-03-21T21:38:48.271Z,11.80
2019-03-21T21:41:14.382Z,11.80
2019-03-21T21:43:40.437Z,11.80
2019-03-21T21:46:06.539Z,11.70
2019-03-21T21:48:41.867Z,11.70
2019-03-21T21:51:07.919Z,11.80
2019-03-21T21:53:49.322Z,11.70
2019-03-21T21:56:17.834Z,11.80
2019-03-21T21:58:45.883Z,11.70
2019-03-21T22:01:11.939Z,11.70
2019-03-21T22:03:38.029Z,11.70
2019-03-21T22:06:04.102Z,11.70
2019-03-21T22:08:42.437Z,11.70
2019-03-21T22:11:08.484Z,11.70
2019-03-21T22:13:34.580Z,11.70
2019-03-21T22:16:03.296Z,11.70
2019-03-21T22:18:32.039Z,11.70
2019-03-21T22:21:00.742Z,11.70
2019-03-21T22:23:26.864Z,11.60
2019-03-21T22:25:52.902Z,11.60
2019-03-21T22:28:18.957Z,11.60
2019-03-21T22:30:51.259Z,11.60
2019-03-21T22:33:17.412Z,11.60
2019-03-21T22:35:46.636Z,11.60
2019-03-21T22:38:12.842Z,11.60
2019-03-21T22:40:38.880Z,11.60
2019-03-21T22:43:04.963Z,11.60
2019-03-21T22:45:31.184Z,11.60
2019-03-21T22:48:00.016Z,11.60
2019-03-21T22:50:26.197Z,11.50
2019-03-21T22:52:52.288Z,11.50
2019-03-21T22:55:33.719Z,11.50
2019-03-21T22:57:59.942Z,11.50
2019-03-21T23:00:42.809Z,11.50
2019-03-21T23:03:09.620Z,11.50
2019-03-21T23:05:35.726Z,11.50
2019-03-21T23:08:01.900Z,11.50
2019-03-21T23:10:27.989Z,11.50
2019-03-21T23:12:54.122Z,11.50
2019-03-21T23:15:35.419Z,11.50
2019-03-21T23:18:01.600Z,11.40
2019-03-21T23:20:33.842Z,11.40
2019-03-21T23:22:59.944Z,11.40
2019-03-21T23:25:35.238Z,11.40
2019-03-21T23:28:01.407Z,11.30
2019-03-21T23:30:42.755Z,11.30
2019-03-21T23:33:08.844Z,11.30
2019-03-21T23:35:37.874Z,11.30
2019-03-21T23:38:06.650Z,11.30
2019-03-21T23:40:32.775Z,11.30
2019-03-21T23:42:58.829Z,11.30
2019-03-21T23:45:24.929Z,11.30
2019-03-21T23:47:51.001Z,11.30
2019-03-21T23:50:17.184Z,11.30
2019-03-21T23:52:43.374Z,11.30
2019-03-21T23:55:10.269Z,11.30
2019-03-21T23:57:38.854Z,11.20
